Glenwood, Iowa
Current Conditions -  °F | °C
As of 8:58 PM on Sunday 23 Nov 2014 (Local Time) from KOFF Reporting Station
Overcast Overcast  
Wind Chill: 33°   Ceiling: 4600
Heat Index: 42°   Visibility: 10mi
Dew Point: 30°   Wind: 18mph
Humidity: 63%   Direction: 310°NW
Pressure: 29.51"   Gusts: NA
Location:  41.05°N, 95.74°W
Report Text: KOFF 240258Z AUTO 31016KT 10SM OVC046 06/M01 A2951 RMK AO2 SLP999 T00551011 50002
Loading
Personal Weather Stations






























Interactive Weather Map New forecast layout! Learn more

10-Day Weather Forecast

Advertisements
Track Severe Weather on mobile